Diamond Orchid — 9VNH4 — position and weather

sailwx.info

Track history (hours):
 
Tides and Currents Weather Stations Pressure Air Temp Water Temp Dewpoint Dewpoint Depression Visibility Wind Speed Wind Dir Waves Ship Positions

Diamond Orchid

Last reported at 2015-Aug-25 01:21 UTC. Time now 2015-Sep-04 07:50 UTC.
Position N 23°43' E 118°25'.
Warning: this ship's position is 10 days out of date.

Length 144 m; draft 9.9 m.

Type: Tanker. MMSI: 565789000.

Date/timePositionNaut miles runAvg speedWind from/ knotsBaromVisibWave heightAir tempDewpointWater temp
2015-Aug-25 01:21N 23°43' E 118°25'3113.8
2015-Aug-24 23:07N 24°04' E 118°49'1413.5
2015-Aug-24 22:04N 24°14' E 119°01'  
2015-Aug-19 05:23N 34°02' E 130°52'47412.9
2015-Aug-17 16:33N 31°03' E 122°11'1010.4
2015-Aug-17 15:33N 31°05' E 121°60'7 6.9
2015-Aug-17 14:33N 31°09' E 121°53'1313.1
2015-Aug-17 13:33N 31°19' E 121°42'1211.5
2015-Aug-17 12:34N 31°25' E 121°31'1010.0
2015-Aug-17 11:33N 31°31' E 121°22'1313.0
2015-Aug-17 10:33N 31°41' E 121°11'1313.1
2015-Aug-17 09:33N 31°47' E 120°58'1412.1
2015-Aug-17 08:24N 31°59' E 120°50'910.9
2015-Aug-17 07:33N 31°60' E 120°39'10 8.5
2015-Aug-17 06:22N 32°04' E 120°28'13 0.4
2015-Aug-16 01:21N 31°57' E 120°16'14 0.8
2015-Aug-15 08:06N 31°59' E 120°00'2910.5
2015-Aug-15 05:20N 32°03' E 120°34'8 9.1
2015-Aug-15 04:30N 32°00' E 120°43'8 8.1
2015-Aug-15 03:29N 31°57' E 120°52'9 9.8
2015-Aug-15 02:33N 31°49' E 120°55'9 9.0
2015-Aug-15 01:33N 31°45' E 121°05'  
Track history (hours):
 
Tides and Currents Weather Stations Pressure Air Temp Water Temp Dewpoint Dewpoint Depression Visibility Wind Speed Wind Dir Waves Ship Positions

Diamond Orchid

Last reported at 2015-Aug-25 01:21 UTC. Time now 2015-Sep-04 07:50 UTC.
Position N 23°43' E 118°25'.
Warning: this ship's position is 10 days out of date.

Length 144 m; draft 9.9 m.

Type: Tanker. MMSI: 565789000.

Date/timePositionNaut miles runAvg speedWind from/ knotsBaromVisibWave heightAir tempDewpointWater temp
2015-Aug-25 01:21N 23°43' E 118°25'3113.8
2015-Aug-24 23:07N 24°04' E 118°49'1413.5
2015-Aug-24 22:04N 24°14' E 119°01'  
2015-Aug-19 05:23N 34°02' E 130°52'47412.9
2015-Aug-17 16:33N 31°03' E 122°11'1010.4
2015-Aug-17 15:33N 31°05' E 121°60'7 6.9
2015-Aug-17 14:33N 31°09' E 121°53'1313.1
2015-Aug-17 13:33N 31°19' E 121°42'1211.5
2015-Aug-17 12:34N 31°25' E 121°31'1010.0
2015-Aug-17 11:33N 31°31' E 121°22'1313.0
2015-Aug-17 10:33N 31°41' E 121°11'1313.1
2015-Aug-17 09:33N 31°47' E 120°58'1412.1
2015-Aug-17 08:24N 31°59' E 120°50'910.9
2015-Aug-17 07:33N 31°60' E 120°39'10 8.5
2015-Aug-17 06:22N 32°04' E 120°28'13 0.4
2015-Aug-16 01:21N 31°57' E 120°16'14 0.8
2015-Aug-15 08:06N 31°59' E 120°00'2910.5
2015-Aug-15 05:20N 32°03' E 120°34'8 9.1
2015-Aug-15 04:30N 32°00' E 120°43'8 8.1
2015-Aug-15 03:29N 31°57' E 120°52'9 9.8
2015-Aug-15 02:33N 31°49' E 120°55'9 9.0
2015-Aug-15 01:33N 31°45' E 121°05'  

Dump ship's entire track history